Time;durP1;ratioP1;P1;durP2;ratioP2;P2;SDS_P1;SDS_P2;PMS_P1;PMS_P2;Temp;Humidity;BMP_temperature;BMP_pressure;BME280_temperature;BME280_humidity;BME280_pressure;Samples;Min_cycle;Max_cycle;Signal;HPM_P1;HPM_P2
2022/05/21 00:00:42;;;;;;;16.40;7.00;;;10.90;99.90;;;;;;5037367;28;20044;-60
2022/05/21 00:03:09;;;;;;;12.90;5.68;;;11.00;99.90;;;;;;5072417;28;20059;-59
2022/05/21 00:05:36;;;;;;;13.18;6.30;;;11.40;99.90;;;;;;5054667;28;20047;-59
2022/05/21 00:08:04;;;;;;;16.02;6.60;;;10.90;99.90;;;;;;5053503;28;20543;-59
2022/05/21 00:10:31;;;;;;;12.10;6.15;;;11.00;99.90;;;;;;5053583;28;20048;-59
2022/05/21 00:13:00;;;;;;;11.77;6.40;;;11.20;99.90;;;;;;5072180;28;20132;-59
2022/05/21 00:15:30;;;;;;;15.10;7.00;;;11.10;99.90;;;;;;5052995;28;20135;-59
2022/05/21 00:17:56;;;;;;;13.55;7.82;;;11.30;99.90;;;;;;5072100;28;20033;-59
2022/05/21 00:23:25;;;;;;;14.27;8.18;;;12.20;99.90;;;;;;4978246;28;20500;-59
2022/05/21 00:25:59;;;;;;;20.73;9.52;;;11.80;99.90;;;;;;5038893;28;20048;-59
2022/05/21 00:28:26;;;;;;;16.65;9.98;;;11.70;99.90;;;;;;5037211;28;20048;-59
2022/05/21 00:30:52;;;;;;;20.27;10.80;;;11.30;99.90;;;;;;5053258;28;20477;-59
2022/05/21 00:33:18;;;;;;;23.90;12.38;;;11.70;99.90;;;;;;5054247;28;20040;-59
2022/05/21 00:35:44;;;;;;;20.92;12.40;;;11.70;99.90;;;;;;5071591;28;20428;-59
2022/05/21 00:38:10;;;;;;;20.45;12.50;;;12.00;99.90;;;;;;5071559;28;20045;-59
2022/05/21 00:40:37;;;;;;;19.23;12.75;;;11.40;99.90;;;;;;5072062;28;20378;-59
2022/05/21 00:43:03;;;;;;;25.73;14.65;;;11.60;99.90;;;;;;5070559;28;20036;-59
2022/05/21 00:45:30;;;;;;;22.60;13.55;;;11.80;99.90;;;;;;5072002;28;20051;-59
2022/05/21 00:47:56;;;;;;;21.67;14.80;;;12.20;99.90;;;;;;5053952;28;20048;-59
2022/05/21 00:50:28;;;;;;;24.13;13.68;;;11.80;99.90;;;;;;5070689;28;20048;-59
2022/05/21 00:52:54;;;;;;;27.70;15.07;;;12.20;99.90;;;;;;5053596;28;20036;-58
2022/05/21 00:55:29;;;;;;;20.73;13.73;;;12.20;99.90;;;;;;5071663;28;20036;-59
2022/05/21 01:00:44;;;;;;;22.67;13.70;;;12.20;99.90;;;;;;5072105;28;20048;-59
2022/05/21 01:03:12;;;;;;;29.13;14.15;;;12.40;99.90;;;;;;5071360;28;20033;-59
2022/05/21 01:05:38;;;;;;;26.77;13.15;;;12.50;99.90;;;;;;5071038;28;20068;-59
2022/05/21 01:08:05;;;;;;;20.20;13.23;;;12.30;99.90;;;;;;5052548;28;20045;-59
2022/05/21 01:10:38;;;;;;;26.10;13.77;;;12.10;99.90;;;;;;5053691;28;20079;-59
2022/05/21 01:13:08;;;;;;;18.35;12.10;;;12.10;99.90;;;;;;5052318;28;20040;-59
2022/05/21 01:15:39;;;;;;;20.65;13.05;;;12.40;99.90;;;;;;5053442;28;20530;-59
2022/05/21 01:18:07;;;;;;;20.67;13.82;;;12.80;99.90;;;;;;5070776;28;20036;-59
2022/05/21 01:20:48;;;;;;;23.23;13.32;;;12.50;99.90;;;;;;5037331;28;20125;-59
2022/05/21 01:23:17;;;;;;;25.38;13.80;;;13.10;99.90;;;;;;5056357;28;20068;-59
2022/05/21 01:25:44;;;;;;;17.58;12.23;;;13.30;99.90;;;;;;5057161;28;20401;-59
2022/05/21 01:28:12;;;;;;;21.67;12.88;;;12.60;99.90;;;;;;5074904;28;20041;-59
2022/05/21 01:30:45;;;;;;;24.58;14.05;;;12.90;99.90;;;;;;5075455;28;20048;-59
2022/05/21 01:33:14;;;;;;;31.27;15.13;;;12.80;99.90;;;;;;5074056;28;20045;-59
2022/05/21 01:35:42;;;;;;;22.88;13.13;;;12.80;99.90;;;;;;5075249;28;20037;-59
2022/05/21 01:38:09;;;;;;;24.38;14.25;;;12.80;99.90;;;;;;5074743;28;20397;-59
2022/05/21 01:40:36;;;;;;;26.17;15.25;;;12.90;99.90;;;;;;5039855;28;20076;-59
2022/05/21 01:45:48;;;;;;;24.38;13.77;;;12.70;99.90;;;;;;5075578;28;20101;-59
2022/05/21 01:48:18;;;;;;;23.90;13.63;;;12.30;99.90;;;;;;5074107;28;20074;-59
2022/05/21 01:50:49;;;;;;;22.30;12.38;;;12.70;99.90;;;;;;5057146;28;20049;-59
2022/05/21 01:53:15;;;;;;;25.77;13.27;;;12.50;99.90;;;;;;5074119;28;20828;-59
2022/05/21 01:55:42;;;;;;;23.75;12.27;;;13.10;99.90;;;;;;5074666;28;20076;-59
2022/05/21 01:58:08;;;;;;;21.67;12.55;;;12.90;99.90;;;;;;5074120;28;20044;-59
2022/05/21 02:00:34;;;;;;;17.67;11.02;;;13.30;99.90;;;;;;5074146;28;20036;-59
2022/05/21 02:02:59;;;;;;;21.35;12.27;;;13.00;99.90;;;;;;5056362;28;20071;-59
2022/05/21 02:05:25;;;;;;;19.02;10.73;;;14.40;99.90;;;;;;5074700;28;20098;-59
2022/05/21 02:07:51;;;;;;;24.90;10.73;;;12.70;99.90;;;;;;5055924;28;20413;-59
2022/05/21 02:10:16;;;;;;;19.33;9.95;;;12.50;99.90;;;;;;5074231;28;20063;-59
2022/05/21 02:12:42;;;;;;;18.05;8.73;;;12.80;99.90;;;;;;5074758;28;20123;-59
2022/05/21 02:15:09;;;;;;;20.33;8.75;;;13.10;99.90;;;;;;5073319;28;20040;-59
2022/05/21 02:17:34;;;;;;;18.08;8.35;;;12.80;99.90;;;;;;5056377;28;20039;-59
2022/05/21 02:20:00;;;;;;;15.88;7.72;;;12.70;99.90;;;;;;5074067;28;20048;-59
2022/05/21 02:22:29;;;;;;;17.25;7.30;;;14.10;99.90;;;;;;5073139;28;20037;-59
2022/05/21 02:24:55;;;;;;;22.33;7.75;;;;;;;;;;5073977;28;20545;-59
2022/05/21 02:27:21;;;;;;;19.15;7.43;;;12.70;99.90;;;;;;5056580;28;20052;-59
2022/05/21 02:29:47;;;;;;;18.80;6.95;;;14.90;99.90;;;;;;5073801;28;20043;-59
2022/05/21 02:32:14;;;;;;;16.60;7.50;;;12.90;99.90;;;;;;5056291;28;20048;-59
2022/05/21 02:34:40;;;;;;;20.98;6.93;;;14.60;99.90;;;;;;5055934;28;20044;-58
2022/05/21 02:39:51;;;;;;;16.08;6.40;;;13.30;99.90;;;;;;5073857;28;20505;-59
2022/05/21 02:45:03;;;;;;;29.38;7.55;;;13.40;99.90;;;;;;5074145;28;20075;-59
2022/05/21 02:47:30;;;;;;;19.13;5.82;;;13.10;99.90;;;;;;5073681;28;20050;-59
2022/05/21 02:49:56;;;;;;;15.90;5.40;;;13.40;99.90;;;;;;5072918;28;20044;-59
2022/05/21 02:52:21;;;;;;;22.17;5.53;;;12.90;99.90;;;;;;5055346;28;20032;-59
2022/05/21 02:54:47;;;;;;;20.33;5.82;;;13.60;99.90;;;;;;5039000;28;20178;-59
2022/05/21 02:57:13;;;;;;;15.05;5.55;;;12.80;99.90;;;;;;5055435;28;20114;-59
2022/05/21 02:59:39;;;;;;;18.27;5.35;;;13.00;99.90;;;;;;5074113;28;20033;-59
2022/05/21 03:02:05;;;;;;;21.58;5.47;;;13.20;99.90;;;;;;5073352;28;20134;-59
2022/05/21 03:04:32;;;;;;;15.85;5.07;;;13.10;99.90;;;;;;5055378;28;20123;-59
2022/05/21 03:06:58;;;;;;;14.57;5.25;;;13.20;99.90;;;;;;5039086;28;20436;-59
2022/05/21 03:12:09;;;;;;;14.45;4.60;;;13.10;99.90;;;;;;5072348;28;20060;-59
2022/05/21 03:14:35;;;;;;;14.73;4.38;;;13.30;99.90;;;;;;5073799;28;20393;-59
2022/05/21 03:17:01;;;;;;;20.65;4.88;;;13.50;99.90;;;;;;5073157;28;20086;-60
2022/05/21 03:19:29;;;;;;;18.10;5.10;;;13.60;99.90;;;;;;5072151;28;20040;-59
2022/05/21 03:21:54;;;;;;;12.25;4.03;;;13.30;99.90;;;;;;5055451;28;20041;-59
2022/05/21 03:24:20;;;;;;;12.70;4.25;;;;;;;;;;5054397;28;20466;-60
2022/05/21 03:26:46;;;;;;;16.75;5.45;;;13.30;99.90;;;;;;5055024;28;20041;-59
2022/05/21 03:29:12;;;;;;;14.90;4.00;;;12.90;99.90;;;;;;5072736;28;20051;-59
2022/05/21 03:31:38;;;;;;;19.15;5.10;;;13.20;99.90;;;;;;5054246;28;20408;-59
2022/05/21 03:34:04;;;;;;;18.73;5.57;;;13.40;99.90;;;;;;5073138;28;20036;-59
2022/05/21 03:36:30;;;;;;;11.20;4.75;;;13.30;99.90;;;;;;5055029;28;20049;-59
2022/05/21 03:38:55;;;;;;;13.38;5.45;;;13.00;99.90;;;;;;5053822;28;20043;-59
2022/05/21 03:41:21;;;;;;;17.08;4.75;;;13.30;99.90;;;;;;5072964;28;20111;-59
2022/05/21 03:43:47;;;;;;;16.73;4.28;;;13.20;99.90;;;;;;5072995;28;20036;-59
2022/05/21 03:46:13;;;;;;;9.57;4.28;;;13.00;99.90;;;;;;5071312;28;20040;-58
2022/05/21 03:48:39;;;;;;;17.88;4.60;;;13.30;99.90;;;;;;5055248;28;20048;-59
2022/05/21 03:51:05;;;;;;;14.20;4.07;;;;;;;;;;5072260;28;20504;-59
2022/05/21 03:53:31;;;;;;;15.35;4.53;;;13.20;99.90;;;;;;5071927;28;20033;-59
2022/05/21 03:55:58;;;;;;;16.38;4.75;;;13.40;99.90;;;;;;5054612;28;20056;-59
2022/05/21 03:58:24;;;;;;;18.23;4.32;;;12.60;99.90;;;;;;5054131;28;20036;-59
2022/05/21 04:00:50;;;;;;;13.00;4.22;;;13.40;99.90;;;;;;5053609;28;20044;-59
2022/05/21 04:03:16;;;;;;;12.10;4.00;;;13.30;99.90;;;;;;5072421;28;20046;-59
2022/05/21 04:05:42;;;;;;;13.60;3.97;;;13.20;99.90;;;;;;5054628;28;20049;-59
2022/05/21 04:08:09;;;;;;;14.55;4.28;;;13.20;99.90;;;;;;5071068;28;20048;-59
2022/05/21 04:10:35;;;;;;;13.98;3.85;;;14.60;99.90;;;;;;5073114;28;20382;-59
2022/05/21 04:13:01;;;;;;;13.77;3.25;;;13.30;99.90;;;;;;5072144;28;20033;-59
2022/05/21 04:15:26;;;;;;;12.95;3.45;;;13.20;99.90;;;;;;5071207;28;20082;-59
2022/05/21 04:17:56;;;;;;;9.38;3.15;;;13.30;99.90;;;;;;5071828;28;20033;-59
2022/05/21 04:20:23;;;;;;;19.13;4.57;;;13.50;99.90;;;;;;5054042;28;20051;-59
2022/05/21 04:22:49;;;;;;;11.27;3.58;;;;;;;;;;5071108;28;20417;-59
2022/05/21 04:25:15;;;;;;;11.23;3.65;;;12.80;99.90;;;;;;5054274;28;20584;-59
2022/05/21 04:27:41;;;;;;;14.88;3.90;;;13.00;99.90;;;;;;5071817;28;20128;-59
2022/05/21 04:30:11;;;;;;;11.40;3.38;;;13.20;99.90;;;;;;5053402;28;20132;-59
2022/05/21 04:32:37;;;;;;;16.35;3.75;;;13.10;99.90;;;;;;5072164;28;20043;-59
2022/05/21 04:35:04;;;;;;;16.25;3.47;;;13.90;99.90;;;;;;5053050;28;20036;-59
2022/05/21 04:37:29;;;;;;;10.88;4.00;;;12.90;99.90;;;;;;5072078;28;20037;-59
2022/05/21 04:39:55;;;;;;;12.05;3.80;;;13.30;99.90;;;;;;5071951;28;20047;-59
2022/05/21 04:42:21;;;;;;;17.13;4.03;;;13.20;99.90;;;;;;5053436;28;20032;-59
2022/05/21 04:44:46;;;;;;;8.98;3.25;;;13.60;99.90;;;;;;5072122;28;20044;-59
2022/05/21 04:47:12;;;;;;;9.45;3.10;;;14.30;99.90;;;;;;5071401;28;20040;-59
2022/05/21 04:49:37;;;;;;;20.23;4.20;;;13.20;99.90;;;;;;5070905;28;20044;-59
2022/05/21 04:52:04;;;;;;;17.33;3.67;;;13.20;99.90;;;;;;5053935;28;20112;-59
2022/05/21 04:54:30;;;;;;;9.32;3.53;;;13.20;99.90;;;;;;5037030;28;20044;-59
2022/05/21 04:56:56;;;;;;;11.88;4.25;;;13.40;99.90;;;;;;5037753;28;20077;-59
2022/05/21 04:59:21;;;;;;;11.88;3.60;;;12.80;99.90;;;;;;5076080;28;20044;-59
2022/05/21 05:01:47;;;;;;;13.25;3.40;;;12.80;99.90;;;;;;5058145;28;20040;-59
2022/05/21 05:04:13;;;;;;;9.40;3.63;;;13.00;99.90;;;;;;5074838;28;20032;-59
2022/05/21 05:06:39;;;;;;;14.15;3.67;;;13.40;99.90;;;;;;5058346;28;20032;-59
2022/05/21 05:09:07;;;;;;;15.07;3.78;;;12.90;99.90;;;;;;5057250;28;20055;-59
2022/05/21 05:11:33;;;;;;;16.70;4.53;;;13.60;99.90;;;;;;5075044;28;20044;-60
2022/05/21 05:13:58;;;;;;;12.98;3.63;;;13.40;99.90;;;;;;5075205;28;20166;-59
2022/05/21 05:16:24;;;;;;;13.50;3.90;;;13.60;99.90;;;;;;5075583;28;20037;-59
2022/05/21 05:18:50;;;;;;;12.35;4.15;;;13.10;99.90;;;;;;5056592;28;20032;-59
2022/05/21 05:21:15;;;;;;;11.35;3.42;;;13.10;99.90;;;;;;5075494;28;20424;-59
2022/05/21 05:23:41;;;;;;;11.00;3.53;;;15.10;99.90;;;;;;5057613;28;20088;-59
2022/05/21 05:26:07;;;;;;;9.73;3.25;;;13.50;99.90;;;;;;5056309;28;20090;-59
2022/05/21 05:28:32;;;;;;;10.25;3.70;;;13.60;99.90;;;;;;5075716;28;20037;-59
2022/05/21 05:30:58;;;;;;;15.82;3.60;;;13.50;99.90;;;;;;5074298;28;20090;-59
2022/05/21 05:33:24;;;;;;;11.32;3.30;;;13.50;99.90;;;;;;5074925;28;20032;-59
2022/05/21 05:35:54;;;;;;;14.63;3.80;;;13.70;99.90;;;;;;5057301;28;20123;-59
2022/05/21 05:38:22;;;;;;;11.88;4.70;;;13.30;99.90;;;;;;5057076;28;20458;-59
2022/05/21 05:40:50;;;;;;;14.23;4.35;;;13.40;99.90;;;;;;5057058;28;20089;-59
2022/05/21 05:43:17;;;;;;;11.63;3.45;;;13.50;99.90;;;;;;5075178;28;20055;-59
2022/05/21 05:45:43;;;;;;;18.13;4.53;;;13.70;99.90;;;;;;5056663;28;20107;-59
2022/05/21 05:48:08;;;;;;;20.48;3.95;;;13.70;99.90;;;;;;5056432;28;20453;-59
2022/05/21 05:50:35;;;;;;;12.70;4.00;;;13.70;99.90;;;;;;5075027;28;20399;-59
2022/05/21 05:53:05;;;;;;;13.88;3.70;;;14.00;99.90;;;;;;5074098;28;20036;-59
2022/05/21 05:55:32;;;;;;;12.38;4.78;;;13.90;99.90;;;;;;5075184;28;20107;-59
2022/05/21 05:57:58;;;;;;;10.95;3.08;;;13.70;99.90;;;;;;5074839;28;20048;-59
2022/05/21 06:00:25;;;;;;;11.73;2.80;;;13.90;99.90;;;;;;5073991;28;20143;-59
2022/05/21 06:05:44;;;;;;;14.13;4.13;;;13.60;99.90;;;;;;5056896;28;20048;-59
2022/05/21 06:08:10;;;;;;;14.05;3.97;;;14.20;99.90;;;;;;5054087;28;20048;-59
2022/05/21 06:10:38;;;;;;;13.07;2.97;;;14.10;99.90;;;;;;5074753;28;20044;-59
2022/05/21 06:13:05;;;;;;;13.13;3.78;;;14.00;99.90;;;;;;5056474;28;20041;-59
2022/05/21 06:15:32;;;;;;;10.98;3.22;;;14.10;99.90;;;;;;5073812;28;20052;-59
2022/05/21 06:17:57;;;;;;;13.18;3.75;;;14.10;99.90;;;;;;5056726;28;20037;-59
2022/05/21 06:20:26;;;;;;;14.02;3.20;;;13.90;99.90;;;;;;5073732;28;20378;-59
2022/05/21 06:22:52;;;;;;;12.50;3.38;;;13.80;99.90;;;;;;5055876;28;20056;-59
2022/05/21 06:25:22;;;;;;;13.55;4.00;;;13.70;99.90;;;;;;5056376;28;20118;-60
2022/05/21 06:27:50;;;;;;;8.90;3.00;;;15.00;99.90;;;;;;5055672;28;20091;-59
2022/05/21 06:30:18;;;;;;;11.02;3.30;;;14.30;99.90;;;;;;5069216;28;20041;-59
2022/05/21 06:32:44;;;;;;;12.95;3.78;;;13.70;99.90;;;;;;5036108;28;20041;-59
2022/05/21 06:35:11;;;;;;;12.90;3.42;;;13.90;99.90;;;;;;5041439;28;20045;-59
2022/05/21 06:37:37;;;;;;;15.18;3.67;;;14.10;99.90;;;;;;5051783;28;20072;-59
2022/05/21 06:40:05;;;;;;;15.73;3.33;;;14.00;99.90;;;;;;5051289;28;20068;-59
2022/05/21 06:42:31;;;;;;;12.82;3.53;;;14.20;99.90;;;;;;5050815;28;20500;-59
2022/05/21 06:44:57;;;;;;;13.20;3.75;;;14.40;99.90;;;;;;5050971;28;20041;-59
2022/05/21 06:47:23;;;;;;;19.13;3.85;;;;;;;;;;5050680;28;20036;-59
2022/05/21 06:49:52;;;;;;;11.98;3.10;;;14.30;99.90;;;;;;5035722;28;20056;-59
2022/05/21 06:52:18;;;;;;;14.27;4.00;;;14.20;99.90;;;;;;5053466;28;20439;-59
2022/05/21 06:54:43;;;;;;;11.32;2.92;;;14.40;99.90;;;;;;5053272;28;20091;-59
2022/05/21 06:57:10;;;;;;;15.15;4.30;;;16.40;99.90;;;;;;5035247;28;20127;-60
2022/05/21 06:59:36;;;;;;;12.23;3.60;;;;;;;;;;5070745;28;20037;-59
2022/05/21 07:02:02;;;;;;;12.18;3.10;;;14.90;99.90;;;;;;5070985;28;20056;-59
2022/05/21 07:09:58;;;;;;;15.20;3.97;;;;;;;;;;5051528;28;20552;-59
2022/05/21 07:12:24;;;;;;;17.88;4.35;;;;;;;;;;5052347;28;20090;-59
2022/05/21 07:14:50;;;;;;;16.98;3.97;;;15.00;99.90;;;;;;5052478;28;20044;-59
2022/05/21 07:17:19;;;;;;;17.73;4.53;;;15.00;99.90;;;;;;5051909;28;20123;-59
2022/05/21 07:19:44;;;;;;;9.90;3.55;;;14.90;99.90;;;;;;5069218;28;20036;-59
2022/05/21 07:22:10;;;;;;;13.82;3.50;;;15.40;99.90;;;;;;5051683;28;20044;-59
2022/05/21 07:24:42;;;;;;;12.68;4.47;;;;;;;;;;5069701;28;20056;-59
2022/05/21 07:27:08;;;;;;;17.30;3.67;;;14.90;99.90;;;;;;5034861;28;20081;-59
2022/05/21 07:29:36;;;;;;;12.02;3.58;;;;;;;;;;5050692;28;20048;-60
2022/05/21 07:32:01;;;;;;;10.18;3.20;;;14.80;99.90;;;;;;5052064;28;20067;-59
2022/05/21 07:34:31;;;;;;;12.15;3.50;;;;;;;;;;5052046;28;20485;-59
2022/05/21 07:36:56;;;;;;;13.32;6.30;;;14.80;99.90;;;;;;5052610;28;20456;-59
2022/05/21 07:39:22;;;;;;;14.95;3.83;;;15.10;99.90;;;;;;5069288;28;20033;-59
2022/05/21 07:41:48;;;;;;;12.27;3.53;;;16.40;99.90;;;;;;5035849;28;20052;-60
2022/05/21 07:44:13;;;;;;;10.95;3.03;;;15.80;99.90;;;;;;5067938;28;20140;-59
2022/05/21 07:46:39;;;;;;;9.65;3.35;;;15.70;99.90;;;;;;5055310;28;20416;-59
2022/05/21 07:49:05;;;;;;;13.52;3.80;;;15.80;99.90;;;;;;5058318;28;20037;-59
2022/05/21 07:51:30;;;;;;;10.63;3.30;;;15.70;99.90;;;;;;5063431;28;20041;-59
2022/05/21 07:53:56;;;;;;;13.13;3.53;;;16.00;99.90;;;;;;5069019;28;20115;-59
2022/05/21 07:56:22;;;;;;;12.18;3.97;;;15.50;99.90;;;;;;5051884;28;20044;-59
2022/05/21 07:58:49;;;;;;;17.70;3.30;;;15.70;99.90;;;;;;5052282;28;20064;-60
2022/05/21 08:01:16;;;;;;;13.20;4.15;;;15.90;99.90;;;;;;5048733;28;20129;-60
2022/05/21 08:03:42;;;;;;;15.05;3.83;;;16.10;99.90;;;;;;5048153;28;20040;-60
2022/05/21 08:06:08;;;;;;;18.05;4.20;;;15.90;99.90;;;;;;5050944;28;20032;-60
2022/05/21 08:08:34;;;;;;;13.00;3.55;;;15.50;99.90;;;;;;5032773;28;20032;-60
2022/05/21 08:11:00;;;;;;;11.40;4.00;;;15.80;99.90;;;;;;5048225;28;20068;-59
2022/05/21 08:13:26;;;;;;;13.32;2.72;;;16.50;99.90;;;;;;5043097;28;20079;-59
2022/05/21 08:15:52;;;;;;;11.65;2.83;;;15.40;99.90;;;;;;5043830;28;20045;-59
2022/05/21 08:18:18;;;;;;;11.32;2.70;;;15.90;99.90;;;;;;5051239;28;20385;-60
2022/05/21 08:20:43;;;;;;;12.77;4.28;;;16.10;99.90;;;;;;5034536;28;20056;-60
2022/05/21 08:28:43;;;;;;;12.75;3.42;;;15.40;99.90;;;;;;5034688;28;20486;-59
2022/05/21 08:31:09;;;;;;;12.52;3.25;;;16.50;99.90;;;;;;5062801;28;20047;-59
2022/05/21 08:33:35;;;;;;;12.77;3.05;;;15.40;99.90;;;;;;5051574;28;20043;-59
2022/05/21 08:36:01;;;;;;;15.93;4.28;;;15.70;99.90;;;;;;5060497;28;20033;-60
2022/05/21 08:38:26;;;;;;;9.50;2.80;;;15.50;99.90;;;;;;5060014;28;20094;-59
2022/05/21 08:41:06;;;;;;;9.77;2.97;;;15.60;99.90;;;;;;5051979;28;20040;-59
2022/05/21 08:43:58;;;;;;;14.57;3.03;;;15.90;99.90;;;;;;5069229;28;20040;-59
2022/05/21 08:46:47;;;;;;;12.57;3.17;;;15.60;99.90;;;;;;5071207;28;20148;-59
2022/05/21 08:49:25;;;;;;;14.05;3.42;;;15.40;99.90;;;;;;5023046;28;20456;-59
2022/05/21 08:52:23;;;;;;;12.68;3.38;;;15.60;99.90;;;;;;5051372;28;20088;-59
2022/05/21 08:54:50;;;;;;;13.90;3.33;;;;;;;;;;5051830;28;20112;-59
2022/05/21 08:57:23;;;;;;;10.20;2.67;;;15.60;99.90;;;;;;5049750;28;20041;-59
2022/05/21 08:59:58;;;;;;;14.88;3.40;;;15.60;99.90;;;;;;5050815;28;20045;-58
2022/05/21 09:02:30;;;;;;;9.68;2.88;;;15.70;99.90;;;;;;5052819;28;20047;-59
2022/05/21 09:04:56;;;;;;;12.45;3.60;;;16.00;99.90;;;;;;5071224;28;20089;-59
2022/05/21 09:07:24;;;;;;;12.65;3.65;;;16.00;99.90;;;;;;5053911;28;20537;-60
2022/05/21 09:10:09;;;;;;;10.23;2.75;;;;;;;;;;5069239;28;20487;-59
2022/05/21 09:12:35;;;;;;;13.93;3.50;;;;;;;;;;5039180;28;20124;-60
2022/05/21 09:15:02;;;;;;;10.40;3.63;;;;;;;;;;5071520;28;20041;-59
2022/05/21 09:17:28;;;;;;;12.45;3.13;;;;;;;;;;5071278;28;20116;-61
2022/05/21 09:19:57;;;;;;;7.90;3.38;;;;;;;;;;5036938;28;20048;-60
2022/05/21 09:22:23;;;;;;;16.90;3.28;;;;;;;;;;5033624;28;20098;-60
2022/05/21 09:24:49;;;;;;;13.82;4.15;;;;;;;;;;5051039;28;20182;-60
2022/05/21 09:27:32;;;;;;;9.27;2.75;;;;;;;;;;5033712;28;20107;-59
2022/05/21 09:30:12;;;;;;;10.73;3.33;;;;;;;;;;5034146;28;20090;-59
2022/05/21 09:32:40;;;;;;;7.45;2.50;;;;;;;;;;5066859;28;20040;-59
2022/05/21 09:35:12;;;;;;;14.48;4.78;;;;;;;;;;5071131;28;20136;-59
2022/05/21 09:37:38;;;;;;;14.02;3.00;;;;;;;;;;5071083;28;20493;-60
2022/05/21 09:40:16;;;;;;;11.20;3.08;;;;;;;;;;5053701;28;20045;-60
2022/05/21 09:45:32;;;;;;;12.77;3.22;;;;;;;;;;5057014;28;20477;-59
2022/05/21 09:48:04;;;;;;;13.63;4.10;;;;;;;;;;5057547;28;20052;-59
2022/05/21 09:50:31;;;;;;;10.00;3.83;;;;;;;;;;5050009;28;20041;-60
2022/05/21 09:52:58;;;;;;;9.30;2.70;;;;;;;;;;5039088;28;20037;-60
2022/05/21 09:55:28;;;;;;;11.07;2.40;;;;;;;;;;5074748;28;20044;-60
2022/05/21 09:57:56;;;;;;;12.27;2.75;;;;;;;;;;5053426;28;20058;-60
2022/05/21 10:00:25;;;;;;;12.48;2.70;;;;;;;;;;5033709;28;20048;-59
2022/05/21 10:02:51;;;;;;;8.32;2.15;;;;;;;;;;5065897;28;20359;-59
2022/05/21 10:05:21;;;;;;;9.55;2.10;;;;;;;;;;5052216;28;20048;-60
2022/05/21 10:10:58;;;;;;;8.82;3.70;;;16.90;99.90;;;;;;5050565;28;20053;-60
2022/05/21 10:13:25;;;;;;;10.68;3.25;;;16.90;99.90;;;;;;5053500;28;20044;-59
2022/05/21 10:16:02;;;;;;;8.45;2.95;;;17.00;99.90;;;;;;5059025;28;20504;-59
2022/05/21 10:18:49;;;;;;;9.52;3.08;;;16.50;99.90;;;;;;5068402;28;20032;-59
2022/05/21 10:21:35;;;;;;;9.55;3.30;;;16.70;99.90;;;;;;5063631;28;20044;-60
2022/05/21 10:24:15;;;;;;;7.45;2.20;;;16.50;99.90;;;;;;5066105;28;20091;-60
2022/05/21 10:26:57;;;;;;;15.35;6.13;;;16.10;99.90;;;;;;5053101;28;20867;-59
2022/05/21 10:30:00;;;;;;;13.07;4.60;;;16.40;99.90;;;;;;5053717;28;20102;-60
2022/05/21 10:33:02;;;;;;;13.73;3.47;;;16.60;99.90;;;;;;5035929;28;20063;-59
2022/05/21 10:35:31;;;;;;;13.40;5.43;;;16.60;99.90;;;;;;5060660;28;20041;-60
2022/05/21 10:38:20;;;;;;;12.48;5.05;;;16.70;99.90;;;;;;5046206;28;20049;-59
2022/05/21 10:41:00;;;;;;;10.23;4.43;;;16.20;99.90;;;;;;5036558;28;20048;-60
2022/05/21 10:43:35;;;;;;;7.25;2.50;;;15.90;99.90;;;;;;5050338;28;20052;-60
2022/05/21 10:46:20;;;;;;;10.38;3.15;;;16.50;99.90;;;;;;5039070;28;20094;-60
2022/05/21 10:49:16;;;;;;;12.32;5.63;;;16.40;99.90;;;;;;5052899;28;20044;-58
2022/05/21 10:52:07;;;;;;;15.43;6.70;;;16.60;99.90;;;;;;5051486;28;20052;-59
2022/05/21 10:54:35;;;;;;;14.70;6.50;;;16.30;99.90;;;;;;5050380;28;20060;-59
2022/05/21 10:57:39;;;;;;;13.23;4.18;;;16.30;99.90;;;;;;5050267;28;20171;-59
2022/05/21 11:00:20;;;;;;;19.27;6.07;;;16.70;99.90;;;;;;5051765;28;20463;-60
2022/05/21 11:03:04;;;;;;;13.25;4.32;;;17.10;99.90;;;;;;5056470;28;20048;-60
2022/05/21 11:05:51;;;;;;;8.83;3.10;;;17.00;99.90;;;;;;5053034;28;20049;-61
2022/05/21 11:08:42;;;;;;;7.65;2.97;;;17.30;99.90;;;;;;5052473;28;20044;-60
2022/05/21 11:11:42;;;;;;;11.75;3.17;;;16.80;99.90;;;;;;5057724;28;20051;-60
2022/05/21 11:14:17;;;;;;;14.98;3.30;;;16.80;99.90;;;;;;5035475;28;20040;-60
2022/05/21 11:16:43;;;;;;;;;;;18.70;99.90;;;;;;5070485;28;20041;-61
2022/05/21 11:19:34;;;;;;;9.70;3.13;;;16.90;99.90;;;;;;5049635;28;19927;-61
2022/05/21 11:22:07;;;;;;;10.57;3.08;;;16.80;99.90;;;;;;5052169;28;20086;-60
2022/05/21 11:24:50;;;;;;;12.45;3.50;;;17.10;99.90;;;;;;5051642;28;20147;-60
2022/05/21 11:27:42;;;;;;;6.85;1.95;;;17.10;99.90;;;;;;5069706;28;20378;-60
2022/05/21 11:30:12;;;;;;;11.95;2.90;;;17.30;99.90;;;;;;5050768;28;20084;-61
2022/05/21 11:38:31;;;;;;;10.15;2.67;;;17.50;99.90;;;;;;5069424;28;20084;-60
2022/05/21 11:47:05;;;;;;;8.25;2.60;;;18.10;99.90;;;;;;5058736;28;20748;-60
2022/05/21 11:50:04;;;;;;;16.13;3.10;;;17.80;99.90;;;;;;5051868;28;20568;-60
2022/05/21 11:52:35;;;;;;;10.35;2.33;;;17.70;99.90;;;;;;5069194;28;20051;-61
2022/05/21 11:55:01;;;;;;;6.85;2.55;;;;;;;;;;5051762;28;20093;-60
2022/05/21 11:57:35;;;;;;;10.18;2.42;;;17.60;99.90;;;;;;5052067;28;20113;-59
2022/05/21 12:00:21;;;;;;;7.55;2.35;;;16.90;99.90;;;;;;5069008;28;20032;-60
2022/05/21 12:02:58;;;;;;;7.38;2.13;;;17.60;99.90;;;;;;5038065;28;20451;-60
2022/05/21 12:05:33;;;;;;;12.38;2.33;;;17.70;99.90;;;;;;5051080;28;20045;-60
2022/05/21 12:08:25;;;;;;;8.10;2.13;;;17.40;99.90;;;;;;5069274;28;20044;-61
2022/05/21 12:10:56;;;;;;;8.15;2.50;;;17.80;99.90;;;;;;5069049;28;20497;-61
2022/05/21 12:13:34;;;;;;;7.63;2.03;;;17.90;99.90;;;;;;5068959;28;20055;-60
2022/05/21 12:16:19;;;;;;;6.15;1.98;;;17.70;99.90;;;;;;5069375;28;20044;-60
2022/05/21 12:18:46;;;;;;;6.35;2.25;;;17.50;99.90;;;;;;5048642;28;20048;-61
2022/05/21 12:21:27;;;;;;;9.20;2.80;;;17.40;99.90;;;;;;5057465;28;20083;-61
2022/05/21 12:23:56;;;;;;;10.10;3.55;;;17.50;99.90;;;;;;5067474;28;20501;-60
2022/05/21 12:26:32;;;;;;;9.10;2.90;;;16.90;99.90;;;;;;5068485;28;20048;-61
2022/05/21 12:29:10;;;;;;;8.20;2.97;;;17.20;99.90;;;;;;5069352;28;20055;-61
2022/05/21 12:31:57;;;;;;;8.48;2.38;;;17.20;99.90;;;;;;5051338;28;20049;-61
2022/05/21 12:34:49;;;;;;;10.25;2.88;;;17.40;99.90;;;;;;5068399;28;20043;-61
2022/05/21 12:37:19;;;;;;;9.00;1.77;;;;;;;;;;5069330;28;20475;-61
2022/05/21 12:39:57;;;;;;;7.22;2.25;;;18.20;99.90;;;;;;5069049;28;20036;-61
2022/05/21 12:42:34;;;;;;;13.77;2.97;;;17.80;99.90;;;;;;5050705;28;20072;-61
2022/05/21 12:45:00;;;;;;;7.60;2.05;;;17.80;99.90;;;;;;5069038;28;20481;-60
2022/05/21 12:47:30;;;;;;;16.05;4.97;;;19.10;99.90;;;;;;5066820;28;20090;-61
2022/05/21 12:49:56;;;;;;;8.10;2.22;;;17.40;99.90;;;;;;5049887;28;20041;-60
2022/05/21 12:52:29;;;;;;;10.18;2.42;;;17.40;99.90;;;;;;5051509;28;20036;-61
2022/05/21 12:55:15;;;;;;;7.32;2.17;;;17.40;99.90;;;;;;5069104;28;20094;-61
2022/05/21 12:57:41;;;;;;;11.35;2.33;;;17.60;99.90;;;;;;5051322;28;20048;-60
2022/05/21 13:00:07;;;;;;;13.48;2.95;;;17.30;99.90;;;;;;5051354;28;20048;-61
2022/05/21 13:02:41;;;;;;;10.27;3.08;;;17.40;99.90;;;;;;5068937;28;20040;-61
2022/05/21 13:05:08;;;;;;;13.13;2.95;;;17.50;99.90;;;;;;5069109;28;20137;-60
2022/05/21 13:07:41;;;;;;;11.75;3.67;;;17.50;99.90;;;;;;5051706;28;20090;-60
2022/05/21 13:10:25;;;;;;;9.60;3.65;;;17.50;99.90;;;;;;5067835;28;20048;-61
2022/05/21 13:13:01;;;;;;;11.68;3.25;;;17.50;99.90;;;;;;5034645;28;20066;-60
2022/05/21 13:15:39;;;;;;;8.60;3.35;;;17.30;99.90;;;;;;5067887;28;20451;-61
2022/05/21 13:18:20;;;;;;;10.70;3.50;;;17.20;99.90;;;;;;5069453;28;20044;-60
2022/05/21 13:21:30;;;;;;;12.23;5.60;;;17.10;99.90;;;;;;5038066;28;20056;-61
2022/05/21 13:24:11;;;;;;;12.95;3.65;;;17.00;99.90;;;;;;5050666;28;20057;-60
2022/05/21 13:26:39;;;;;;;6.63;2.15;;;17.10;99.90;;;;;;5052864;28;20063;-60
2022/05/21 13:29:25;;;;;;;10.68;3.28;;;17.30;99.90;;;;;;5032692;28;20624;-60
2022/05/21 13:31:52;;;;;;;11.23;2.90;;;;;;;;;;5049254;28;20074;-60
2022/05/21 13:34:20;;;;;;;10.27;2.90;;;;;;;;;;5053990;28;20040;-61
2022/05/21 13:36:57;;;;;;;8.35;3.00;;;;;;;;;;5046064;28;20397;-61
2022/05/21 13:39:28;;;;;;;11.57;4.03;;;;;;;;;;5072620;28;20049;-60
2022/05/21 13:41:57;;;;;;;9.88;3.65;;;;;;;;;;5055316;28;20032;-61
2022/05/21 13:44:24;;;;;;;11.80;3.13;;;;;;;;;;5063970;28;20033;-60
2022/05/21 13:46:58;;;;;;;9.48;2.83;;;;;;;;;;5062570;28;20110;-61
2022/05/21 13:49:36;;;;;;;10.88;2.75;;;;;;;;;;5061551;28;20155;-60
2022/05/21 13:52:02;;;;;;;12.05;3.40;;;;;;;;;;5034315;28;20045;-61
2022/05/21 13:54:30;;;;;;;12.55;3.08;;;;;;;;;;5070402;28;20036;-60
2022/05/21 13:57:20;;;;;;;11.35;3.47;;;;;;;;;;5041956;28;20073;-60